Aérodrome :
LOGIN :

S'inscrire | Disclaimer

   EN    FR    IT 

 










Légende :    VFR   VFR Marginal   IFR   IFR Intensif   IFR Très Intensif
Visi : 
Plafond : 
>= 8 km
>= 3000ft
5 à 8 km
1000 à 3000 ft
1500m à 5 km
500 à 1000 ft
800 à 1500m
200 à 500 ft
< 800m
< 200 ft
Symboles :   Orages  Brouillard  Fortes neiges  Fortes précipitations  Vent > 20 kt
SIGMETs :   Divers  Orages  Givrage  Turbulence  Onde Orograph.  Cendres Volcan.






- Altitude de l'aérodrome : 400 ft
- Code IATA : BNX


LQBK - Banja Luka

DERNIER METAR :
  • 272130Z 20010KT CAVOK 07/M05 Q1004 NOSIG

METARs EXPIRÉS :
  • 272100Z 20012KT CAVOK 07/M05 Q1004 NOSIG
  • 272030Z 19010KT CAVOK 07/M04 Q1005 NOSIG
  • 272000Z 20014KT CAVOK 07/M04 Q1005 NOSIG
  • 271930Z 15006KT CAVOK 06/M03 Q1006 NOSIG
  • 271900Z 18008KT CAVOK 05/M02 Q1006 NOSIG

TAF TAF LQBK
Valide du 27 à 18h jusqu'au 28 à 18h UTC


271700Z 2718/2818 18005KT CAVOK TX10/2813Z TN04/2805Z
TEMPO 2720/2807 24010KT
PROB30
TEMPO 2722/2807 24015G25KT
PROB30
TEMPO 2803/2807 4000 SHRA FEW030TCU BKN045
BECMG 2806/2808 30012KT
TEMPO 2808/2816 34017G30KT



MET'MAP, la Météo Aéronautique d'un coup d'oeil ! - Copyright ORBIFLY Décembre 2007 - Disclaimer

ORBIFLY MET'MAP TEAM :

Programmation & Développement : Alexandra Zaïnal
Sur une idée originale de : Baudouin d'Aumeries
Assistance à la programmation : Marc-Olivier Méhu
Soutien technique & logistique : Manuel Goepfert

Contact : metmap@orbifly.com




SOURCES & CREDITS :

   NOAA